sensor_id;sensor_type;location;lat;lon;timestamp;P1;durP1;ratioP1;P2;durP2;ratioP2
64619;SDS011;51029;51.058;13.826;2024-03-23T00:52:35;10.83;;;9.70;;
64619;SDS011;51029;51.058;13.826;2024-03-23T00:55:01;11.80;;;9.80;;
64619;SDS011;51029;51.058;13.826;2024-03-23T00:57:27;11.93;;;9.23;;
64619;SDS011;51029;51.058;13.826;2024-03-23T00:59:53;13.07;;;10.00;;
64619;SDS011;51029;51.058;13.826;2024-03-23T01:02:19;13.67;;;9.53;;
64619;SDS011;51029;51.058;13.826;2024-03-23T01:04:45;10.60;;;9.40;;
64619;SDS011;51029;51.058;13.826;2024-03-23T01:07:11;14.00;;;10.43;;
64619;SDS011;51029;51.058;13.826;2024-03-23T01:09:37;12.93;;;9.87;;
64619;SDS011;51029;51.058;13.826;2024-03-23T01:12:03;11.17;;;9.50;;
64619;SDS011;51029;51.058;13.826;2024-03-23T01:14:29;12.37;;;9.50;;
64619;SDS011;51029;51.058;13.826;2024-03-23T01:16:55;13.73;;;10.53;;
64619;SDS011;51029;51.058;13.826;2024-03-23T01:19:21;13.20;;;9.97;;
64619;SDS011;51029;51.058;13.826;2024-03-23T01:21:47;14.67;;;10.20;;
64619;SDS011;51029;51.058;13.826;2024-03-23T01:24:14;11.63;;;9.83;;
64619;SDS011;51029;51.058;13.826;2024-03-23T01:26:40;14.47;;;10.53;;
64619;SDS011;51029;51.058;13.826;2024-03-23T01:29:06;14.90;;;10.43;;
64619;SDS011;51029;51.058;13.826;2024-03-23T01:31:32;12.43;;;10.47;;
64619;SDS011;51029;51.058;13.826;2024-03-23T01:33:58;13.73;;;11.10;;
64619;SDS011;51029;51.058;13.826;2024-03-23T01:36:24;12.80;;;10.17;;
64619;SDS011;51029;51.058;13.826;2024-03-23T01:38:50;15.33;;;11.17;;
64619;SDS011;51029;51.058;13.826;2024-03-23T01:41:16;13.50;;;10.67;;
64619;SDS011;51029;51.058;13.826;2024-03-23T01:43:42;15.00;;;11.70;;
64619;SDS011;51029;51.058;13.826;2024-03-23T01:46:08;14.23;;;11.30;;
64619;SDS011;51029;51.058;13.826;2024-03-23T01:48:35;13.23;;;10.97;;
64619;SDS011;51029;51.058;13.826;2024-03-23T01:51:01;12.90;;;10.83;;
64619;SDS011;51029;51.058;13.826;2024-03-23T01:53:27;15.23;;;11.80;;
64619;SDS011;51029;51.058;13.826;2024-03-23T01:55:53;13.97;;;11.40;;
64619;SDS011;51029;51.058;13.826;2024-03-23T01:58:19;14.57;;;11.20;;
64619;SDS011;51029;51.058;13.826;2024-03-23T02:00:45;14.87;;;12.17;;
64619;SDS011;51029;51.058;13.826;2024-03-23T02:03:21;14.50;;;12.20;;
64619;SDS011;51029;51.058;13.826;2024-03-23T02:05:48;16.33;;;12.10;;
64619;SDS011;51029;51.058;13.826;2024-03-23T02:08:14;15.40;;;12.53;;
64619;SDS011;51029;51.058;13.826;2024-03-23T02:10:40;17.37;;;13.07;;
64619;SDS011;51029;51.058;13.826;2024-03-23T02:13:06;18.77;;;13.53;;
64619;SDS011;51029;51.058;13.826;2024-03-23T02:15:31;18.23;;;13.60;;
64619;SDS011;51029;51.058;13.826;2024-03-23T02:17:58;16.80;;;13.33;;
64619;SDS011;51029;51.058;13.826;2024-03-23T02:20:24;16.97;;;13.73;;
64619;SDS011;51029;51.058;13.826;2024-03-23T02:22:51;20.43;;;14.77;;
64619;SDS011;51029;51.058;13.826;2024-03-23T02:25:17;16.57;;;13.87;;
64619;SDS011;51029;51.058;13.826;2024-03-23T02:27:43;17.90;;;14.23;;
64619;SDS011;51029;51.058;13.826;2024-03-23T02:30:09;16.23;;;13.80;;
64619;SDS011;51029;51.058;13.826;2024-03-23T02:32:35;18.97;;;13.60;;
64619;SDS011;51029;51.058;13.826;2024-03-23T02:35:01;19.87;;;14.27;;
64619;SDS011;51029;51.058;13.826;2024-03-23T02:37:27;16.60;;;14.20;;
64619;SDS011;51029;51.058;13.826;2024-03-23T02:39:53;16.83;;;14.20;;
64619;SDS011;51029;51.058;13.826;2024-03-23T02:42:19;23.40;;;14.63;;
64619;SDS011;51029;51.058;13.826;2024-03-23T02:44:45;17.90;;;14.60;;
64619;SDS011;51029;51.058;13.826;2024-03-23T02:47:11;20.40;;;14.90;;
64619;SDS011;51029;51.058;13.826;2024-03-23T02:49:36;17.90;;;14.93;;
64619;SDS011;51029;51.058;13.826;2024-03-23T02:52:02;20.67;;;14.63;;
64619;SDS011;51029;51.058;13.826;2024-03-23T02:54:28;20.47;;;14.90;;
64619;SDS011;51029;51.058;13.826;2024-03-23T02:56:54;20.37;;;15.53;;
64619;SDS011;51029;51.058;13.826;2024-03-23T02:59:20;21.00;;;16.17;;
64619;SDS011;51029;51.058;13.826;2024-03-23T03:01:46;21.03;;;16.70;;
64619;SDS011;51029;51.058;13.826;2024-03-23T03:04:12;22.67;;;17.17;;
64619;SDS011;51029;51.058;13.826;2024-03-23T03:06:38;21.47;;;17.00;;
64619;SDS011;51029;51.058;13.826;2024-03-23T03:09:05;21.77;;;16.70;;
64619;SDS011;51029;51.058;13.826;2024-03-23T03:11:31;19.90;;;15.67;;
64619;SDS011;51029;51.058;13.826;2024-03-23T03:13:57;18.87;;;15.27;;
64619;SDS011;51029;51.058;13.826;2024-03-23T03:16:25;20.40;;;15.10;;
64619;SDS011;51029;51.058;13.826;2024-03-23T03:18:51;20.87;;;16.20;;
64619;SDS011;51029;51.058;13.826;2024-03-23T03:21:17;20.03;;;15.87;;
64619;SDS011;51029;51.058;13.826;2024-03-23T03:23:44;22.23;;;16.33;;
64619;SDS011;51029;51.058;13.826;2024-03-23T03:26:10;22.53;;;16.67;;
64619;SDS011;51029;51.058;13.826;2024-03-23T03:28:36;22.33;;;16.10;;
64619;SDS011;51029;51.058;13.826;2024-03-23T03:31:02;21.53;;;15.80;;
64619;SDS011;51029;51.058;13.826;2024-03-23T03:33:28;24.07;;;17.13;;
64619;SDS011;51029;51.058;13.826;2024-03-23T03:35:54;21.80;;;17.40;;
64619;SDS011;51029;51.058;13.826;2024-03-23T03:38:20;24.00;;;17.50;;
64619;SDS011;51029;51.058;13.826;2024-03-23T03:40:46;20.87;;;15.93;;
64619;SDS011;51029;51.058;13.826;2024-03-23T03:43:12;21.63;;;15.97;;
64619;SDS011;51029;51.058;13.826;2024-03-23T03:45:38;19.40;;;15.53;;
64619;SDS011;51029;51.058;13.826;2024-03-23T03:48:04;21.57;;;16.00;;
64619;SDS011;51029;51.058;13.826;2024-03-23T03:50:30;20.50;;;15.77;;
64619;SDS011;51029;51.058;13.826;2024-03-23T03:52:56;21.53;;;15.20;;
64619;SDS011;51029;51.058;13.826;2024-03-23T03:55:22;23.43;;;16.53;;
64619;SDS011;51029;51.058;13.826;2024-03-23T03:57:48;22.83;;;15.93;;
64619;SDS011;51029;51.058;13.826;2024-03-23T04:00:14;19.70;;;15.73;;
64619;SDS011;51029;51.058;13.826;2024-03-23T04:02:40;22.03;;;15.87;;
64619;SDS011;51029;51.058;13.826;2024-03-23T04:05:06;22.43;;;16.90;;
64619;SDS011;51029;51.058;13.826;2024-03-23T04:07:33;19.90;;;16.57;;
64619;SDS011;51029;51.058;13.826;2024-03-23T04:09:59;24.03;;;16.97;;
64619;SDS011;51029;51.058;13.826;2024-03-23T04:12:25;23.33;;;17.13;;
64619;SDS011;51029;51.058;13.826;2024-03-23T04:14:50;22.87;;;16.50;;
64619;SDS011;51029;51.058;13.826;2024-03-23T04:17:16;21.33;;;16.43;;
64619;SDS011;51029;51.058;13.826;2024-03-23T04:19:43;22.67;;;17.73;;
64619;SDS011;51029;51.058;13.826;2024-03-23T04:22:09;26.73;;;20.30;;
64619;SDS011;51029;51.058;13.826;2024-03-23T04:24:35;25.00;;;18.10;;
64619;SDS011;51029;51.058;13.826;2024-03-23T04:27:01;22.93;;;17.87;;
64619;SDS011;51029;51.058;13.826;2024-03-23T04:29:28;22.57;;;17.00;;
64619;SDS011;51029;51.058;13.826;2024-03-23T04:31:54;21.60;;;16.33;;
64619;SDS011;51029;51.058;13.826;2024-03-23T04:34:20;22.90;;;17.97;;
64619;SDS011;51029;51.058;13.826;2024-03-23T04:36:46;26.13;;;18.50;;
64619;SDS011;51029;51.058;13.826;2024-03-23T04:39:12;23.80;;;18.27;;
64619;SDS011;51029;51.058;13.826;2024-03-23T04:41:38;25.70;;;19.23;;
64619;SDS011;51029;51.058;13.826;2024-03-23T04:44:04;25.47;;;18.77;;
64619;SDS011;51029;51.058;13.826;2024-03-23T04:46:30;26.57;;;19.10;;
64619;SDS011;51029;51.058;13.826;2024-03-23T04:48:56;25.23;;;19.20;;
64619;SDS011;51029;51.058;13.826;2024-03-23T04:51:25;25.83;;;18.50;;
64619;SDS011;51029;51.058;13.826;2024-03-23T04:53:51;26.90;;;19.60;;
64619;SDS011;51029;51.058;13.826;2024-03-23T04:56:17;27.80;;;20.03;;
64619;SDS011;51029;51.058;13.826;2024-03-23T04:58:43;26.40;;;19.40;;
64619;SDS011;51029;51.058;13.826;2024-03-23T05:01:10;26.73;;;19.70;;
64619;SDS011;51029;51.058;13.826;2024-03-23T05:03:36;27.93;;;19.90;;
64619;SDS011;51029;51.058;13.826;2024-03-23T05:06:02;27.87;;;20.73;;
64619;SDS011;51029;51.058;13.826;2024-03-23T05:08:27;24.77;;;19.47;;
64619;SDS011;51029;51.058;13.826;2024-03-23T05:10:53;29.53;;;20.33;;
64619;SDS011;51029;51.058;13.826;2024-03-23T05:13:19;34.00;;;21.73;;
64619;SDS011;51029;51.058;13.826;2024-03-23T05:15:50;31.00;;;22.07;;
64619;SDS011;51029;51.058;13.826;2024-03-23T05:18:16;32.40;;;21.87;;
64619;SDS011;51029;51.058;13.826;2024-03-23T05:20:42;30.13;;;21.87;;
64619;SDS011;51029;51.058;13.826;2024-03-23T05:23:09;33.13;;;23.80;;
64619;SDS011;51029;51.058;13.826;2024-03-23T05:25:35;32.53;;;22.37;;
64619;SDS011;51029;51.058;13.826;2024-03-23T05:28:00;35.27;;;22.83;;
64619;SDS011;51029;51.058;13.826;2024-03-23T05:30:27;36.00;;;25.00;;
64619;SDS011;51029;51.058;13.826;2024-03-23T05:32:53;35.93;;;25.07;;
64619;SDS011;51029;51.058;13.826;2024-03-23T05:35:20;35.83;;;25.03;;
64619;SDS011;51029;51.058;13.826;2024-03-23T05:37:46;36.43;;;25.10;;
64619;SDS011;51029;51.058;13.826;2024-03-23T05:40:12;41.30;;;26.73;;
64619;SDS011;51029;51.058;13.826;2024-03-23T05:42:40;37.80;;;26.00;;
64619;SDS011;51029;51.058;13.826;2024-03-23T05:45:06;39.07;;;26.83;;
64619;SDS011;51029;51.058;13.826;2024-03-23T05:47:33;37.27;;;24.80;;
64619;SDS011;51029;51.058;13.826;2024-03-23T05:49:58;35.73;;;25.30;;
64619;SDS011;51029;51.058;13.826;2024-03-23T05:52:24;33.27;;;23.00;;
64619;SDS011;51029;51.058;13.826;2024-03-23T05:54:52;37.57;;;24.73;;
64619;SDS011;51029;51.058;13.826;2024-03-23T05:57:18;33.63;;;23.60;;
64619;SDS011;51029;51.058;13.826;2024-03-23T05:59:44;32.73;;;24.37;;
64619;SDS011;51029;51.058;13.826;2024-03-23T06:02:10;31.90;;;23.43;;
64619;SDS011;51029;51.058;13.826;2024-03-23T06:04:36;31.53;;;23.20;;
64619;SDS011;51029;51.058;13.826;2024-03-23T06:07:02;31.37;;;22.50;;
64619;SDS011;51029;51.058;13.826;2024-03-23T06:09:28;31.87;;;23.20;;
64619;SDS011;51029;51.058;13.826;2024-03-23T06:11:56;29.37;;;22.87;;
64619;SDS011;51029;51.058;13.826;2024-03-23T06:14:22;33.57;;;23.07;;
64619;SDS011;51029;51.058;13.826;2024-03-23T06:16:48;30.53;;;23.30;;
64619;SDS011;51029;51.058;13.826;2024-03-23T06:19:14;32.67;;;24.90;;
64619;SDS011;51029;51.058;13.826;2024-03-23T06:21:43;35.33;;;23.93;;
64619;SDS011;51029;51.058;13.826;2024-03-23T06:24:10;31.97;;;24.03;;
64619;SDS011;51029;51.058;13.826;2024-03-23T06:26:36;32.07;;;24.43;;
64619;SDS011;51029;51.058;13.826;2024-03-23T06:29:02;33.03;;;24.13;;
64619;SDS011;51029;51.058;13.826;2024-03-23T06:31:30;36.40;;;26.83;;
64619;SDS011;51029;51.058;13.826;2024-03-23T06:33:55;43.07;;;27.73;;
64619;SDS011;51029;51.058;13.826;2024-03-23T06:36:21;41.17;;;29.73;;
64619;SDS011;51029;51.058;13.826;2024-03-23T06:38:47;37.83;;;27.93;;
64619;SDS011;51029;51.058;13.826;2024-03-23T06:41:13;40.10;;;29.33;;
64619;SDS011;51029;51.058;13.826;2024-03-23T06:43:39;40.60;;;29.53;;
64619;SDS011;51029;51.058;13.826;2024-03-23T06:46:05;39.63;;;28.27;;
64619;SDS011;51029;51.058;13.826;2024-03-23T06:48:31;43.53;;;30.40;;
64619;SDS011;51029;51.058;13.826;2024-03-23T06:50:57;41.27;;;28.17;;
64619;SDS011;51029;51.058;13.826;2024-03-23T06:53:23;40.53;;;29.30;;
64619;SDS011;51029;51.058;13.826;2024-03-23T06:55:50;39.33;;;29.00;;
64619;SDS011;51029;51.058;13.826;2024-03-23T06:58:16;41.47;;;28.37;;
64619;SDS011;51029;51.058;13.826;2024-03-23T07:00:42;39.67;;;28.47;;
64619;SDS011;51029;51.058;13.826;2024-03-23T07:03:08;41.47;;;30.13;;
64619;SDS011;51029;51.058;13.826;2024-03-23T07:05:34;42.80;;;29.67;;
64619;SDS011;51029;51.058;13.826;2024-03-23T07:08:00;41.77;;;30.77;;
64619;SDS011;51029;51.058;13.826;2024-03-23T07:10:26;42.87;;;30.40;;
64619;SDS011;51029;51.058;13.826;2024-03-23T07:12:52;43.67;;;31.27;;
64619;SDS011;51029;51.058;13.826;2024-03-23T07:15:18;49.97;;;32.67;;
64619;SDS011;51029;51.058;13.826;2024-03-23T07:17:46;48.17;;;34.20;;
64619;SDS011;51029;51.058;13.826;2024-03-23T07:20:12;53.90;;;34.00;;
64619;SDS011;51029;51.058;13.826;2024-03-23T07:22:38;53.40;;;36.37;;
64619;SDS011;51029;51.058;13.826;2024-03-23T07:25:04;55.50;;;34.80;;
64619;SDS011;51029;51.058;13.826;2024-03-23T07:27:31;51.53;;;34.43;;
64619;SDS011;51029;51.058;13.826;2024-03-23T07:29:57;56.00;;;36.13;;
64619;SDS011;51029;51.058;13.826;2024-03-23T07:32:23;53.93;;;35.30;;
64619;SDS011;51029;51.058;13.826;2024-03-23T07:34:49;53.47;;;35.33;;
64619;SDS011;51029;51.058;13.826;2024-03-23T07:37:15;54.30;;;35.23;;
64619;SDS011;51029;51.058;13.826;2024-03-23T07:39:41;52.50;;;34.13;;
64619;SDS011;51029;51.058;13.826;2024-03-23T07:42:06;54.57;;;35.53;;
64619;SDS011;51029;51.058;13.826;2024-03-23T07:44:32;50.00;;;33.17;;
64619;SDS011;51029;51.058;13.826;2024-03-23T07:46:59;52.20;;;34.30;;
64619;SDS011;51029;51.058;13.826;2024-03-23T07:49:25;55.10;;;34.40;;
64619;SDS011;51029;51.058;13.826;2024-03-23T07:51:51;49.37;;;33.50;;
64619;SDS011;51029;51.058;13.826;2024-03-23T07:54:17;52.63;;;34.53;;
64619;SDS011;51029;51.058;13.826;2024-03-23T07:56:43;47.37;;;33.47;;
64619;SDS011;51029;51.058;13.826;2024-03-23T07:59:09;47.93;;;33.07;;
64619;SDS011;51029;51.058;13.826;2024-03-23T08:01:35;46.37;;;32.93;;
64619;SDS011;51029;51.058;13.826;2024-03-23T08:04:01;46.80;;;34.20;;
64619;SDS011;51029;51.058;13.826;2024-03-23T08:06:27;45.10;;;33.80;;
64619;SDS011;51029;51.058;13.826;2024-03-23T08:08:54;46.30;;;33.90;;
64619;SDS011;51029;51.058;13.826;2024-03-23T08:11:31;42.20;;;32.33;;
64619;SDS011;51029;51.058;13.826;2024-03-23T08:13:59;40.60;;;30.90;;
64619;SDS011;51029;51.058;13.826;2024-03-23T08:16:26;38.37;;;30.30;;
64619;SDS011;51029;51.058;13.826;2024-03-23T08:18:52;38.57;;;30.53;;
64619;SDS011;51029;51.058;13.826;2024-03-23T08:21:18;38.70;;;32.20;;
64619;SDS011;51029;51.058;13.826;2024-03-23T08:23:44;39.43;;;32.67;;
64619;SDS011;51029;51.058;13.826;2024-03-23T08:26:11;39.33;;;29.90;;
64619;SDS011;51029;51.058;13.826;2024-03-23T08:28:37;36.60;;;28.67;;
64619;SDS011;51029;51.058;13.826;2024-03-23T08:31:04;35.40;;;28.77;;
64619;SDS011;51029;51.058;13.826;2024-03-23T08:33:31;40.13;;;29.60;;
64619;SDS011;51029;51.058;13.826;2024-03-23T08:36:04;33.37;;;26.93;;
64619;SDS011;51029;51.058;13.826;2024-03-23T08:38:30;31.13;;;25.13;;
64619;SDS011;51029;51.058;13.826;2024-03-23T08:41:03;32.60;;;25.27;;
64619;SDS011;51029;51.058;13.826;2024-03-23T08:43:30;31.63;;;26.00;;
64619;SDS011;51029;51.058;13.826;2024-03-23T08:46:12;30.00;;;23.73;;
64619;SDS011;51029;51.058;13.826;2024-03-23T08:48:39;33.87;;;26.33;;
64619;SDS011;51029;51.058;13.826;2024-03-23T08:51:06;36.47;;;27.83;;
64619;SDS011;51029;51.058;13.826;2024-03-23T08:53:32;36.03;;;28.43;;
64619;SDS011;51029;51.058;13.826;2024-03-23T08:55:59;39.30;;;31.63;;
64619;SDS011;51029;51.058;13.826;2024-03-23T08:58:26;45.53;;;31.60;;
64619;SDS011;51029;51.058;13.826;2024-03-23T09:00:52;48.83;;;33.73;;
64619;SDS011;51029;51.058;13.826;2024-03-23T09:03:20;48.43;;;34.77;;
64619;SDS011;51029;51.058;13.826;2024-03-23T09:05:46;47.70;;;33.33;;
64619;SDS011;51029;51.058;13.826;2024-03-23T09:08:12;41.20;;;31.30;;
64619;SDS011;51029;51.058;13.826;2024-03-23T09:10:38;44.70;;;32.27;;
64619;SDS011;51029;51.058;13.826;2024-03-23T09:13:05;42.53;;;31.63;;
64619;SDS011;51029;51.058;13.826;2024-03-23T09:15:31;41.70;;;29.73;;
64619;SDS011;51029;51.058;13.826;2024-03-23T09:17:58;38.97;;;28.77;;
64619;SDS011;51029;51.058;13.826;2024-03-23T09:20:25;36.43;;;27.53;;
64619;SDS011;51029;51.058;13.826;2024-03-23T09:22:51;43.00;;;33.87;;
64619;SDS011;51029;51.058;13.826;2024-03-23T09:25:17;34.80;;;26.87;;
64619;SDS011;51029;51.058;13.826;2024-03-23T09:27:43;32.93;;;24.57;;
64619;SDS011;51029;51.058;13.826;2024-03-23T09:30:10;34.77;;;25.37;;
64619;SDS011;51029;51.058;13.826;2024-03-23T09:32:37;28.60;;;21.37;;
64619;SDS011;51029;51.058;13.826;2024-03-23T09:35:03;26.63;;;21.83;;
64619;SDS011;51029;51.058;13.826;2024-03-23T09:37:29;26.13;;;21.43;;
64619;SDS011;51029;51.058;13.826;2024-03-23T09:39:55;27.87;;;21.73;;
64619;SDS011;51029;51.058;13.826;2024-03-23T09:42:21;27.90;;;22.83;;
64619;SDS011;51029;51.058;13.826;2024-03-23T09:44:47;25.80;;;21.40;;
64619;SDS011;51029;51.058;13.826;2024-03-23T09:47:16;23.87;;;20.67;;
64619;SDS011;51029;51.058;13.826;2024-03-23T09:49:42;22.03;;;17.67;;
64619;SDS011;51029;51.058;13.826;2024-03-23T09:52:08;20.00;;;17.90;;
64619;SDS011;51029;51.058;13.826;2024-03-23T09:54:34;20.97;;;16.90;;
64619;SDS011;51029;51.058;13.826;2024-03-23T09:57:00;23.10;;;17.93;;
64619;SDS011;51029;51.058;13.826;2024-03-23T09:59:26;25.20;;;19.20;;
64619;SDS011;51029;51.058;13.826;2024-03-23T10:01:52;27.03;;;19.27;;
64619;SDS011;51029;51.058;13.826;2024-03-23T10:04:37;24.10;;;16.40;;
64619;SDS011;51029;51.058;13.826;2024-03-23T10:07:18;22.77;;;14.57;;
64619;SDS011;51029;51.058;13.826;2024-03-23T10:09:44;15.03;;;9.60;;
64619;SDS011;51029;51.058;13.826;2024-03-23T10:12:11;12.87;;;7.30;;
64619;SDS011;51029;51.058;13.826;2024-03-23T10:14:38;10.63;;;5.13;;
64619;SDS011;51029;51.058;13.826;2024-03-23T10:17:17;13.73;;;10.33;;
64619;SDS011;51029;51.058;13.826;2024-03-23T10:19:44;7.67;;;3.90;;
64619;SDS011;51029;51.058;13.826;2024-03-23T10:22:14;5.87;;;3.20;;
64619;SDS011;51029;51.058;13.826;2024-03-23T10:24:41;7.23;;;3.30;;
64619;SDS011;51029;51.058;13.826;2024-03-23T10:27:07;16.73;;;8.87;;
64619;SDS011;51029;51.058;13.826;2024-03-23T10:29:33;3.03;;;2.13;;
64619;SDS011;51029;51.058;13.826;2024-03-23T10:32:09;2.80;;;1.93;;
64619;SDS011;51029;51.058;13.826;2024-03-23T10:34:35;6.13;;;5.30;;
64619;SDS011;51029;51.058;13.826;2024-03-23T10:37:02;11.73;;;10.57;;
64619;SDS011;51029;51.058;13.826;2024-03-23T10:39:30;5.57;;;4.97;;
64619;SDS011;51029;51.058;13.826;2024-03-23T10:41:56;2.27;;;1.90;;
64619;SDS011;51029;51.058;13.826;2024-03-23T10:44:22;2.47;;;1.73;;
64619;SDS011;51029;51.058;13.826;2024-03-23T10:46:51;2.43;;;1.57;;
64619;SDS011;51029;51.058;13.826;2024-03-23T10:49:23;1.07;;;1.00;;
64619;SDS011;51029;51.058;13.826;2024-03-23T10:51:50;1.87;;;1.03;;
64619;SDS011;51029;51.058;13.826;2024-03-23T10:54:16;1.13;;;1.00;;
64619;SDS011;51029;51.058;13.826;2024-03-23T10:56:43;15.70;;;14.27;;
64619;SDS011;51029;51.058;13.826;2024-03-23T10:59:09;2.17;;;1.60;;
64619;SDS011;51029;51.058;13.826;2024-03-23T11:01:35;1.20;;;1.10;;
64619;SDS011;51029;51.058;13.826;2024-03-23T11:04:01;1.30;;;1.20;;
64619;SDS011;51029;51.058;13.826;2024-03-23T11:06:37;1.70;;;1.33;;
64619;SDS011;51029;51.058;13.826;2024-03-23T11:09:03;1.50;;;1.30;;
64619;SDS011;51029;51.058;13.826;2024-03-23T11:11:29;1.40;;;1.30;;
64619;SDS011;51029;51.058;13.826;2024-03-23T11:13:59;1.80;;;1.70;;
64619;SDS011;51029;51.058;13.826;2024-03-23T11:16:25;1.90;;;1.80;;
64619;SDS011;51029;51.058;13.826;2024-03-23T11:21:53;1.90;;;1.60;;
64619;SDS011;51029;51.058;13.826;2024-03-23T11:24:20;1.97;;;1.60;;
64619;SDS011;51029;51.058;13.826;2024-03-23T11:26:47;2.63;;;1.60;;
64619;SDS011;51029;51.058;13.826;2024-03-23T11:29:16;2.80;;;1.60;;
64619;SDS011;51029;51.058;13.826;2024-03-23T11:31:49;1.50;;;1.40;;
64619;SDS011;51029;51.058;13.826;2024-03-23T11:34:16;1.77;;;1.30;;
64619;SDS011;51029;51.058;13.826;2024-03-23T11:36:42;1.70;;;1.00;;
64619;SDS011;51029;51.058;13.826;2024-03-23T11:39:14;1.57;;;1.23;;
64619;SDS011;51029;51.058;13.826;2024-03-23T11:44:19;1.77;;;1.27;;
64619;SDS011;51029;51.058;13.826;2024-03-23T11:46:45;1.47;;;1.37;;
64619;SDS011;51029;51.058;13.826;2024-03-23T11:51:49;1.90;;;1.63;;
64619;SDS011;51029;51.058;13.826;2024-03-23T11:54:15;2.03;;;1.60;;
64619;SDS011;51029;51.058;13.826;2024-03-23T11:56:53;1.60;;;1.50;;
64619;SDS011;51029;51.058;13.826;2024-03-23T12:02:00;2.33;;;1.80;;
64619;SDS011;51029;51.058;13.826;2024-03-23T12:04:31;1.90;;;1.80;;
64619;SDS011;51029;51.058;13.826;2024-03-23T12:09:45;1.90;;;1.80;;
64619;SDS011;51029;51.058;13.826;2024-03-23T12:12:18;2.17;;;1.60;;
64619;SDS011;51029;51.058;13.826;2024-03-23T12:15:03;1.87;;;1.77;;
64619;SDS011;51029;51.058;13.826;2024-03-23T12:17:30;2.23;;;2.03;;
64619;SDS011;51029;51.058;13.826;2024-03-23T12:19:56;1.70;;;1.60;;
64619;SDS011;51029;51.058;13.826;2024-03-23T12:22:22;2.00;;;1.73;;
64619;SDS011;51029;51.058;13.826;2024-03-23T12:24:49;1.97;;;1.80;;
64619;SDS011;51029;51.058;13.826;2024-03-23T12:27:15;2.30;;;1.80;;
64619;SDS011;51029;51.058;13.826;2024-03-23T12:29:41;1.73;;;1.63;;
64619;SDS011;51029;51.058;13.826;2024-03-23T12:32:08;1.90;;;1.67;;
64619;SDS011;51029;51.058;13.826;2024-03-23T12:34:34;2.20;;;2.00;;
64619;SDS011;51029;51.058;13.826;2024-03-23T12:37:00;2.30;;;1.60;;
64619;SDS011;51029;51.058;13.826;2024-03-23T12:39:26;2.10;;;1.53;;
64619;SDS011;51029;51.058;13.826;2024-03-23T12:41:52;2.13;;;1.60;;
64619;SDS011;51029;51.058;13.826;2024-03-23T12:44:18;2.63;;;1.90;;
64619;SDS011;51029;51.058;13.826;2024-03-23T12:46:44;2.93;;;2.40;;
64619;SDS011;51029;51.058;13.826;2024-03-23T12:49:10;2.23;;;2.03;;
64619;SDS011;51029;51.058;13.826;2024-03-23T12:51:36;2.27;;;2.07;;
64619;SDS011;51029;51.058;13.826;2024-03-23T12:54:03;1.80;;;1.70;;
64619;SDS011;51029;51.058;13.826;2024-03-23T12:56:29;2.50;;;2.30;;
64619;SDS011;51029;51.058;13.826;2024-03-23T12:58:55;2.43;;;2.23;;
64619;SDS011;51029;51.058;13.826;2024-03-23T13:01:22;3.27;;;2.60;;
64619;SDS011;51029;51.058;13.826;2024-03-23T13:03:49;3.10;;;2.37;;
64619;SDS011;51029;51.058;13.826;2024-03-23T13:06:15;2.70;;;2.50;;
64619;SDS011;51029;51.058;13.826;2024-03-23T13:08:41;2.80;;;2.60;;
64619;SDS011;51029;51.058;13.826;2024-03-23T13:11:08;3.13;;;2.83;;
64619;SDS011;51029;51.058;13.826;2024-03-23T13:13:35;3.40;;;3.13;;
64619;SDS011;51029;51.058;13.826;2024-03-23T13:16:01;3.90;;;3.60;;
64619;SDS011;51029;51.058;13.826;2024-03-23T13:18:27;3.83;;;3.53;;
64619;SDS011;51029;51.058;13.826;2024-03-23T13:20:53;4.00;;;3.70;;
64619;SDS011;51029;51.058;13.826;2024-03-23T13:23:19;4.43;;;4.13;;
64619;SDS011;51029;51.058;13.826;2024-03-23T13:25:52;4.57;;;4.17;;
64619;SDS011;51029;51.058;13.826;2024-03-23T13:28:18;4.40;;;4.10;;
64619;SDS011;51029;51.058;13.826;2024-03-23T13:33:16;4.60;;;4.20;;
64619;SDS011;51029;51.058;13.826;2024-03-23T13:35:49;3.93;;;3.63;;
64619;SDS011;51029;51.058;13.826;2024-03-23T13:38:15;4.10;;;3.47;;
64619;SDS011;51029;51.058;13.826;2024-03-23T13:40:48;4.43;;;3.67;;
64619;SDS011;51029;51.058;13.826;2024-03-23T13:43:14;3.60;;;3.30;;
64619;SDS011;51029;51.058;13.826;2024-03-23T13:45:40;3.17;;;2.70;;
64619;SDS011;51029;51.058;13.826;2024-03-23T13:48:06;5.83;;;3.43;;
64619;SDS011;51029;51.058;13.826;2024-03-23T13:50:33;6.13;;;3.10;;
64619;SDS011;51029;51.058;13.826;2024-03-23T13:52:59;2.83;;;2.57;;
64619;SDS011;51029;51.058;13.826;2024-03-23T13:55:25;2.53;;;1.97;;
64619;SDS011;51029;51.058;13.826;2024-03-23T13:57:51;2.67;;;1.80;;
64619;SDS011;51029;51.058;13.826;2024-03-23T14:00:17;2.47;;;1.57;;
64619;SDS011;51029;51.058;13.826;2024-03-23T14:02:43;2.27;;;1.50;;
64619;SDS011;51029;51.058;13.826;2024-03-23T14:05:09;3.47;;;1.50;;
64619;SDS011;51029;51.058;13.826;2024-03-23T14:07:36;4.43;;;1.80;;
64619;SDS011;51029;51.058;13.826;2024-03-23T14:10:02;3.73;;;1.70;;
64619;SDS011;51029;51.058;13.826;2024-03-23T14:12:28;4.83;;;1.90;;
64619;SDS011;51029;51.058;13.826;2024-03-23T14:14:54;5.33;;;1.87;;
64619;SDS011;51029;51.058;13.826;2024-03-23T14:17:20;3.30;;;1.67;;
64619;SDS011;51029;51.058;13.826;2024-03-23T14:19:46;3.13;;;1.93;;
64619;SDS011;51029;51.058;13.826;2024-03-23T14:22:12;3.80;;;1.70;;
64619;SDS011;51029;51.058;13.826;2024-03-23T14:24:38;3.37;;;1.87;;
64619;SDS011;51029;51.058;13.826;2024-03-23T14:27:04;4.00;;;2.17;;
64619;SDS011;51029;51.058;13.826;2024-03-23T14:29:32;4.03;;;2.30;;
64619;SDS011;51029;51.058;13.826;2024-03-23T14:31:59;5.67;;;2.30;;
64619;SDS011;51029;51.058;13.826;2024-03-23T14:34:26;4.67;;;2.27;;
64619;SDS011;51029;51.058;13.826;2024-03-23T14:36:53;3.93;;;2.20;;
64619;SDS011;51029;51.058;13.826;2024-03-23T14:39:22;4.50;;;2.10;;
64619;SDS011;51029;51.058;13.826;2024-03-23T14:41:50;2.90;;;1.70;;
64619;SDS011;51029;51.058;13.826;2024-03-23T14:44:16;3.93;;;2.27;;
64619;SDS011;51029;51.058;13.826;2024-03-23T14:46:41;4.57;;;2.60;;
64619;SDS011;51029;51.058;13.826;2024-03-23T14:49:08;7.57;;;2.53;;
64619;SDS011;51029;51.058;13.826;2024-03-23T14:51:34;5.60;;;2.10;;
64619;SDS011;51029;51.058;13.826;2024-03-23T14:54:00;3.43;;;1.83;;
64619;SDS011;51029;51.058;13.826;2024-03-23T14:56:26;5.30;;;2.03;;
64619;SDS011;51029;51.058;13.826;2024-03-23T14:58:52;4.17;;;1.97;;
64619;SDS011;51029;51.058;13.826;2024-03-23T15:01:18;5.60;;;2.23;;
64619;SDS011;51029;51.058;13.826;2024-03-23T15:03:44;5.77;;;2.40;;
64619;SDS011;51029;51.058;13.826;2024-03-23T15:06:13;4.47;;;2.50;;
64619;SDS011;51029;51.058;13.826;2024-03-23T15:08:39;6.23;;;2.20;;
64619;SDS011;51029;51.058;13.826;2024-03-23T15:11:05;4.83;;;2.20;;
64619;SDS011;51029;51.058;13.826;2024-03-23T15:13:32;4.50;;;2.17;;
64619;SDS011;51029;51.058;13.826;2024-03-23T15:15:58;5.93;;;2.40;;
64619;SDS011;51029;51.058;13.826;2024-03-23T15:18:24;4.23;;;2.43;;
64619;SDS011;51029;51.058;13.826;2024-03-23T15:21:00;6.17;;;3.03;;
64619;SDS011;51029;51.058;13.826;2024-03-23T15:23:36;6.00;;;2.77;;